Latest Weather Observations for Moorabbin Airport

IDV60901

Issued at 9:45 am EST Wednesday 3 September 2014 (issued every 10 minutes, with the page automatically refreshed every 10 minutes)

About weather observations | Map of Melbourne area stations | Latest observations for Melbourne area | Other Formats
Station Details ID: 086077 Name: MOORABBIN AIRPORT Lat: -37.98 Lon: 145.10 Height: 12.1 m
Data from the previous 72 hours. | See also: Recent months at Moorabbin Airport
Date/Time
EST
Tmp

°C
App
Tmp
°C
Dew
Point
°C
Rel
Hum
%
Delta-T

°C
Wind Press
QNH
hPa
Press
MSL
hPa
Rain
since
9 am
mm
Dir
 
Spd
km/h
Gust
km/h
Spd
kts
Gust
kts
03/09:30am 11.7 9.3 5.1 64 3.0 SE 7 13 4 7 1023.4 1023.4 0.0
03/09:00am 11.6 8.4 5.0 64 3.0 SSE 11 17 6 9 1023.4 1023.4 0.0
03/08:30am 11.0 7.3 4.5 64 2.9 SSE 13 17 7 9 1023.4 1023.4 0.0
03/08:00am 10.7 7.0 4.4 65 2.8 SE 13 19 7 10 1023.4 1023.4 0.0
03/07:30am 10.3 7.4 4.5 67 2.6 S 9 11 5 6 1023.1 1023.1 0.0
03/07:00am 9.9 6.9 4.1 67 2.5 S 9 15 5 8 1022.8 1022.8 0.0
03/06:30am 10.2 6.3 3.5 63 2.9 S 13 22 7 12 1022.6 1022.6 0.0
03/06:00am 9.7 5.8 3.2 64 2.8 S 13 19 7 10 1022.4 1022.4 0.0
03/05:30am 10.1 5.8 3.4 63 2.9 S 15 22 8 12 1022.4 1022.4 0.0
03/05:00am 10.3 5.4 4.2 66 2.7 SSW 19 24 10 13 1022.3 1022.3 0.0
03/04:30am 9.9 5.7 3.6 65 2.7 SSW 15 22 8 12 1022.4 1022.4 0.0
03/04:00am 9.9 4.8 3.2 63 2.9 SSW 19 24 10 13 1022.3 1022.3 0.0
03/03:30am 9.9 4.6 3.2 63 2.9 SSW 20 28 11 15 1022.3 1022.3 0.0
03/03:00am 9.9 4.6 3.0 62 3.0 SSW 20 30 11 16 1022.3 1022.3 0.0
03/02:30am 10.2 4.2 3.5 63 2.9 SSW 24 33 13 18 1022.5 1022.5 0.0
03/02:00am 10.0 5.7 5.2 72 2.2 SSW 17 22 9 12 1022.8 1022.8 0.0
03/01:30am 10.3 6.2 6.1 75 1.9 SSW 17 24 9 13 1022.8 1022.8 0.0
03/01:00am 9.9 5.3 5.5 74 2.0 S 19 28 10 15 1022.8 1022.8 0.0
03/12:30am 9.9 5.1 5.7 75 1.9 S 20 28 11 15 1022.6 1022.6 0.0
03/12:00am 10.1 5.6 6.1 76 1.8 SSW 19 28 10 15 1022.7 1022.7 0.0
 
Date/Time
EST
Tmp

°C
App
Tmp
°C
Dew
Point
°C
Rel
Hum
%
Delta-T

°C
Wind Press
QNH
hPa
Press
MSL
hPa
Rain
since
9 am
mm
Dir
 
Spd
km/h
Gust
km/h
Spd
kts
Gust
kts
02/11:30pm 9.7 5.9 5.7 76 1.8 SSW 15 24 8 13 1022.8 1022.8 0.0
02/11:00pm 10.2 5.6 5.6 73 2.1 SSW 19 28 10 15 1022.9 1022.9 0.0
02/10:30pm 10.3 6.1 5.7 73 2.1 SSW 17 30 9 16 1022.9 1022.9 0.0
02/10:00pm 9.8 5.9 5.4 74 2.0 SSW 15 20 8 11 1022.9 1022.9 0.0
02/09:30pm 10.2 6.2 5.0 70 2.3 S 15 19 8 10 1022.8 1022.8 0.0
02/09:00pm 10.9 7.3 5.2 68 2.6 S 13 19 7 10 1022.9 1022.9 0.0
02/08:30pm 10.5 6.9 4.9 68 2.5 SSW 13 17 7 9 1022.8 1022.8 0.0
02/08:00pm 10.6 6.6 4.9 68 2.6 S 15 19 8 10 1022.6 1022.6 0.0
02/07:30pm 11.2 7.3 5.3 67 2.7 S 15 20 8 11 1022.4 1022.4 0.0
02/07:00pm 10.8 6.9 5.3 69 2.5 S 15 24 8 13 1022.1 1022.1 0.0
02/06:30pm 11.3 7.5 5.8 69 2.6 S 15 26 8 14 1021.9 1021.9 0.0
02/06:00pm 10.8 6.8 5.1 68 2.6 SSW 15 20 8 11 1021.5 1021.5 0.0
02/05:30pm 11.2 6.2 4.7 64 2.9 S 20 28 11 15 1021.1 1021.1 0.0
02/05:00pm 11.6 5.2 5.0 64 3.0 S 28 39 15 21 1020.8 1020.8 0.0
02/04:30pm 12.4 5.8 4.1 57 3.7 S 28 35 15 19 1020.3 1020.3 0.0
02/04:00pm 12.8 5.4 4.0 55 4.0 S 32 41 17 22 1020.1 1020.1 0.0
02/03:30pm 12.9 5.8 3.3 52 4.3 S 30 41 16 22 1019.9 1019.9 0.0
02/03:00pm 13.3 5.8 3.4 51 4.4 S 32 39 17 21 1019.9 1019.9 0.0
02/02:30pm 13.2 5.7 3.6 52 4.3 S 32 46 17 25 1019.6 1019.6 0.0
02/02:00pm 13.7 6.2 3.2 49 4.7 S 32 43 17 23 1019.2 1019.2 0.0
02/01:30pm 13.9 6.7 5.0 55 4.1 S 32 43 17 23 1018.9 1018.9 0.0
02/01:00pm 13.6 6.4 5.0 56 4.0 SSW 32 43 17 23 1019.0 1019.0 0.0
02/12:30pm 14.1 7.4 5.5 56 4.1 S 30 43 16 23 1018.8 1018.8 0.0
02/12:00pm 13.5 7.4 6.4 62 3.4 SSW 28 39 15 21 1018.5 1018.5 0.0
02/11:30am 13.4 6.5 6.3 62 3.4 SSW 32 43 17 23 1018.5 1018.5 0.0
02/11:00am 13.1 6.1 6.0 62 3.3 SSW 32 43 17 23 1018.4 1018.4 0.0
02/10:30am 13.1 7.0 6.7 65 3.1 SSW 28 39 15 21 1018.4 1018.4 0.0
02/10:00am 12.1 7.2 8.4 78 1.8 SW 24 30 13 16 1018.1 1018.1 0.0
02/09:30am 12.3 7.3 8.2 76 2.0 SW 24 33 13 18 1017.9 1017.9 0.0
02/09:00am 12.5 8.9 8.2 75 2.1 SSW 17 26 9 14 1017.7 1017.7 12.2
02/08:30am 11.1 7.2 7.0 76 2.0 SW 17 22 9 12 1017.4 1017.4 12.2
02/08:00am 10.6 7.8 6.9 78 1.7 S 11 17 6 9 1017.0 1017.0 12.2
02/07:30am 10.7 7.6 7.4 80 1.6 SSW 13 22 7 12 1016.6 1016.6 12.2
02/07:00am 10.3 6.7 6.8 79 1.6 SW 15 20 8 11 1016.2 1016.2 12.2
02/06:30am 10.2 6.3 6.9 80 1.6 SSW 17 22 9 12 1015.8 1015.8 12.2
02/06:00am 10.2 6.4 7.4 83 1.3 SSW 17 22 9 12 1015.3 1015.3 12.2
02/05:30am 9.4 7.2 7.7 89 0.8 SW 9 13 5 7 1015.0 1015.0 12.2
02/05:00am 9.7 5.7 8.3 91 0.7 SW 19 24 10 13 1014.5 1014.5 12.2
02/04:30am 9.3 6.8 8.2 93 0.5 W 11 15 6 8 1014.2 1014.2 11.8
02/04:24am 9.2 7.0 8.0 92 0.6 W 9 13 5 7 1014.2 1014.2 11.8
02/04:00am 9.7 8.0 8.5 92 0.6 SW 7 11 4 6 1014.1 1014.1 11.8
02/03:57am 9.7 7.7 8.5 92 0.6 WSW 9 13 5 7 1014.0 1014.0 11.8
02/03:30am 9.7 6.1 8.3 91 0.7 SW 17 26 9 14 1014.0 1014.0 11.8
02/03:00am 9.6 6.7 8.2 91 0.7 W 13 20 7 11 1013.6 1013.6 11.4
02/02:30am 9.9 7.3 7.8 87 1.0 W 11 17 6 9 1013.4 1013.4 11.4
02/02:00am 9.7 7.5 8.0 89 0.8 WSW 9 13 5 7 1013.3 1013.3 11.4
02/01:30am 9.2 6.4 6.8 85 1.1 SW 11 15 6 8 1013.4 1013.4 11.4
02/01:00am 10.2 6.7 7.4 83 1.3 WSW 15 24 8 13 1013.3 1013.3 11.2
02/12:30am 10.3 6.9 9.1 92 0.6 W 17 22 9 12 1013.0 1013.0 11.2
02/12:00am 10.2 7.5 9.1 93 0.5 W 13 17 7 9 1012.9 1012.9 11.2
 
Date/Time
EST
Tmp

°C
App
Tmp
°C
Dew
Point
°C
Rel
Hum
%
Delta-T

°C
Wind Press
QNH
hPa
Press
MSL
hPa
Rain
since
9 am
mm
Dir
 
Spd
km/h
Gust
km/h
Spd
kts
Gust
kts
01/11:30pm 10.4 8.2 9.3 93 0.5 W 11 15 6 8 1012.7 1012.7 11.2
01/11:00pm 10.3 8.8 9.2 93 0.5 WNW 7 13 4 7 1012.5 1012.5 11.2
01/10:30pm 10.2 8.6 8.8 91 0.7 WNW 7 11 4 6 1012.4 1012.4 11.2
01/10:00pm 10.0 8.0 8.6 91 0.7 NW 9 15 5 8 1012.5 1012.5 11.2
01/09:30pm 10.3 7.5 8.6 89 0.8 NW 13 19 7 10 1012.4 1012.4 11.2
01/09:00pm 10.5 8.3 9.4 93 0.5 WNW 11 17 6 9 1011.9 1011.9 11.2
01/08:30pm 11.0 9.0 10.1 94 0.5 W 11 15 6 8 1011.7 1011.7 11.2
01/08:00pm 11.1 10.0 10.5 96 0.3 WNW 7 11 4 6 1011.5 1011.5 11.2
01/07:30pm 11.3 9.8 10.5 95 0.4 W 9 11 5 6 1011.0 1011.0 11.2
01/07:00pm 11.3 10.3 11.1 99 0.1 WSW 7 9 4 5 1010.8 1010.8 10.6
01/06:30pm 11.0 9.9 10.8 99 0.1 WNW 7 9 4 5 1010.6 1010.6 10.6
01/06:07pm 10.9 9.8 10.7 99 0.1 WNW 7 9 4 5 1010.2 1010.2 10.6
01/06:00pm 10.9 9.8 10.7 99 0.1 W 7 11 4 6 1010.1 1010.1 10.4
01/05:39pm 10.9 9.4 10.6 98 0.2 WNW 9 13 5 7 1009.9 1009.9 9.4
01/05:30pm 11.0 9.5 10.7 98 0.2 WNW 9 13 5 7 1009.8 1009.8 8.8
01/05:19pm 11.1 9.6 10.6 97 0.3 WNW 9 13 5 7 1009.7 1009.7 8.6
01/05:00pm 11.2 9.3 10.6 96 0.3 WSW 11 17 6 9 1009.4 1009.4 8.4
01/04:31pm 11.6 10.4 10.3 92 0.7 SW 7 9 4 5 1009.0 1009.0 5.8
01/04:30pm 11.6 10.4 10.3 92 0.7 SW 7 9 4 5 1009.0 1009.0 5.6
01/04:19pm 11.6 10.4 10.3 92 0.7 WNW 7 9 4 5 1008.9 1008.9 5.4
01/04:00pm 11.6 10.0 10.3 92 0.7 WNW 9 13 5 7 1008.9 1008.9 5.2
01/03:51pm 11.6 10.0 10.3 92 0.7 WNW 9 15 5 8 1008.9 1008.9 5.0
01/03:30pm 11.9 10.3 10.3 90 0.8 WNW 9 11 5 6 1008.6 1008.6 4.4
01/03:00pm 11.9 10.3 10.3 90 0.8 WNW 9 15 5 8 1008.6 1008.6 4.2
01/02:30pm 12.4 10.2 10.8 90 0.8 WNW 13 22 7 12 1008.4 1008.4 4.0
01/02:00pm 12.4 10.2 10.8 90 0.8 N 13 17 7 9 1008.0 1008.0 3.6
01/01:30pm 12.4 9.8 10.6 89 0.9 N 15 20 8 11 1008.4 1008.4 3.2
01/01:00pm 12.5 10.1 10.0 85 1.3 NNW 13 17 7 9 1008.7 1008.7 3.0
01/12:30pm 12.7 9.5 9.9 83 1.4 N 17 24 9 13 1008.5 1008.5 2.4
01/12:00pm 12.2 9.0 9.9 86 1.2 N 17 22 9 12 1008.8 1008.8 2.0
01/11:42am 11.9 8.9 9.1 83 1.4 NNW 15 22 8 12 1008.7 1008.7 2.0
01/11:30am 11.8 7.9 8.6 81 1.6 NNW 19 24 10 13 1008.9 1008.9 1.8
01/11:21am 12.4 8.6 7.7 73 2.3 WNW 17 26 9 14 1009.1 1009.1 1.0
01/11:00am 14.3 9.7 6.4 59 3.8 NW 20 32 11 17 1008.7 1008.7 0.0
01/10:30am 15.5 10.3 5.4 51 4.8 NNW 22 28 12 15 1008.8 1008.8 0.0
01/10:00am 15.5 10.2 5.1 50 4.9 NNW 22 32 12 17 1008.9 1008.9 0.0
01/09:30am 15.3 9.2 4.9 50 4.9 NNW 26 35 14 19 1009.1 1009.1 0.0
01/09:00am 15.6 9.0 4.3 47 5.3 NNW 28 39 15 21 1008.2 1008.2 0.0
01/08:30am 16.0 9.1 4.4 46 5.4 NNW 30 43 16 23 1008.4 1008.4 0.0
01/08:02am 16.5 9.8 3.9 43 5.9 NNW 28 46 15 25 1008.0 1008.0 0.0
01/08:00am 16.7 9.7 4.1 43 5.9 NNW 30 46 16 25 1008.0 1008.0 0.0
01/07:40am 16.6 9.2 4.0 43 5.9 N 32 50 17 27 1007.5 1007.5 0.0
01/07:30am 16.6 8.3 4.0 43 5.9 N 37 50 20 27 1007.3 1007.3 0.0
01/07:00am 16.3 9.7 4.4 45 5.6 N 28 41 15 22 1007.7 1007.7 0.0
01/06:30am 16.2 10.4 4.6 46 5.5 N 24 35 13 19 1008.1 1008.1 0.0
01/06:00am 16.5 10.3 4.5 45 5.7 N 26 35 14 19 1007.8 1007.8 0.0
01/05:30am 16.9 11.5 4.3 43 5.9 N 22 32 12 17 1008.0 1008.0 0.0
01/05:00am 17.0 10.5 4.7 44 5.8 N 28 43 15 23 1007.5 1007.5 0.0
01/04:30am 16.8 9.5 4.5 44 5.8 N 32 41 17 22 1007.0 1007.0 0.0
01/04:00am 16.9 8.7 4.9 45 5.7 N 37 52 20 28 1007.6 1007.6 0.0
01/03:30am 17.2 9.0 4.9 44 5.9 N 37 50 20 27 1008.1 1008.1 0.0
01/03:06am 17.6 9.7 4.5 42 6.2 N 35 54 19 29 1008.3 1008.3 0.0
01/03:00am 17.6 9.5 5.2 44 6.0 N 37 52 20 28 1008.5 1008.5 0.0
01/02:50am 17.8 9.7 5.1 43 6.1 N 37 56 20 30 1008.3 1008.3 0.0
01/02:30am 17.2 10.1 5.5 46 5.6 N 32 43 17 23 1008.6 1008.6 0.0
01/02:00am 17.4 9.8 5.7 46 5.7 N 35 44 19 24 1008.9 1008.9 0.0
01/01:30am 17.7 10.8 6.3 47 5.6 N 32 41 17 22 1009.3 1009.3 0.0
01/01:00am 17.4 11.7 6.8 49 5.3 N 26 33 14 18 1009.8 1009.8 0.0
01/12:30am 17.9 11.0 6.4 47 5.7 N 32 43 17 23 1009.8 1009.8 0.0
01/12:00am 17.2 11.1 6.7 50 5.2 N 28 41 15 22 1009.7 1009.7 0.0
 
Date/Time
EST
Tmp

°C
App
Tmp
°C
Dew
Point
°C
Rel
Hum
%
Delta-T

°C
Wind Press
QNH
hPa
Press
MSL
hPa
Rain
since
9 am
mm
Dir
 
Spd
km/h
Gust
km/h
Spd
kts
Gust
kts
31/11:30pm 17.5 10.7 6.7 49 5.4 N 32 43 17 23 1009.5 1009.5 0.0
31/11:00pm 17.4 10.0 6.9 50 5.2 N 35 44 19 24 1010.0 1010.0 0.0
31/10:30pm 17.2 9.9 7.3 52 5.0 NNE 35 54 19 29 1010.2 1010.2 0.0
31/10:00pm 17.0 10.7 7.4 53 4.8 N 30 39 16 21 1011.2 1011.2 0.0
31/09:30pm 16.8 11.6 7.2 53 4.8 N 24 33 13 18 1012.2 1012.2 0.0
31/09:00pm 17.0 12.2 7.4 53 4.8 NNE 22 32 12 17 1012.3 1012.3 0.0
31/08:30pm 16.9 12.1 7.5 54 4.7 NNE 22 28 12 15 1012.6 1012.6 0.0
31/08:00pm 16.9 12.6 7.8 55 4.6 NNE 20 28 11 15 1012.9 1012.9 0.0
31/07:30pm 17.1 12.8 7.7 54 4.7 NNE 20 28 11 15 1013.0 1013.0 0.0
31/07:00pm 17.4 11.9 7.7 53 4.9 N 26 32 14 17 1012.9 1012.9 0.0
31/06:30pm 17.5 12.1 7.8 53 4.9 N 26 33 14 18 1013.3 1013.3 0.0
31/06:00pm 17.7 12.2 7.4 51 5.2 N 26 35 14 19 1013.5 1013.5 0.0
31/05:30pm 18.5 12.9 7.0 47 5.8 N 26 37 14 20 1013.4 1013.4 0.0
31/05:00pm 18.9 12.2 7.4 47 5.8 N 32 41 17 22 1013.3 1013.3 0.0
31/04:30pm 19.5 13.2 7.3 45 6.2 N 30 39 16 21 1013.1 1013.1 0.0
31/04:19pm 19.7 13.7 7.1 44 6.4 N 28 46 15 25 1013.1 1013.1 0.0
31/04:00pm 20.1 13.0 6.4 41 6.9 N 33 44 18 24 1013.3 1013.3 0.0
31/03:30pm 19.8 12.8 6.9 43 6.5 N 33 44 18 24 1013.5 1013.5 0.0
31/03:00pm 20.4 14.2 7.7 44 6.5 N 30 37 16 20 1014.2 1014.2 0.0
31/02:30pm 20.1 13.5 7.8 45 6.3 N 32 43 17 23 1014.5 1014.5 0.0
31/02:00pm 20.8 14.0 7.1 41 7.0 N 32 44 17 24 1014.7 1014.7 0.0
31/01:30pm 20.0 13.2 7.1 43 6.6 N 32 44 17 24 1014.9 1014.9 0.0
31/01:00pm 20.6 13.4 7.6 43 6.7 N 35 50 19 27 1015.4 1015.4 0.0
31/12:30pm 20.4 13.1 7.1 42 6.8 N 35 48 19 26 1015.7 1015.7 0.0
31/12:00pm 20.1 12.8 7.1 43 6.6 N 35 48 19 26 1016.4 1016.4 0.0
31/11:30am 19.7 12.9 6.8 43 6.5 N 32 48 17 26 1016.8 1016.8 0.0
31/11:00am 19.1 12.2 6.6 44 6.2 N 32 39 17 21 1017.0 1017.0 0.0
31/10:30am 18.2 11.2 6.7 47 5.7 N 33 43 18 23 1017.4 1017.4 0.0
31/10:00am 17.5 11.3 7.8 53 4.9 N 30 43 16 23 1017.8 1017.8 0.0

Latest Capital City Observations: Canberra | Sydney | Melbourne | Brisbane | Adelaide | Perth | Hobart | Darwin

Other Formats:

Comma delimited format used in spreadsheet applications
http://www.bom.gov.au/fwo/IDV60901/IDV60901.94870.axf

JavaScript Object Notation format (JSON) in row-major order
http://www.bom.gov.au/fwo/IDV60901/IDV60901.94870.json